sensor_id;sensor_type;location;lat;lon;timestamp;P1;durP1;ratioP1;P2;durP2;ratioP2
2850;SDS011;1433;49.976;8.342;2023-05-07T00:01:01;2.33;;;1.83;;
2850;SDS011;1433;49.976;8.342;2023-05-07T00:03:28;1.83;;;1.60;;
2850;SDS011;1433;49.976;8.342;2023-05-07T00:05:55;1.80;;;1.70;;
2850;SDS011;1433;49.976;8.342;2023-05-07T00:08:21;1.60;;;1.50;;
2850;SDS011;1433;49.976;8.342;2023-05-07T00:10:47;1.60;;;1.43;;
2850;SDS011;1433;49.976;8.342;2023-05-07T00:13:13;1.80;;;1.60;;
2850;SDS011;1433;49.976;8.342;2023-05-07T00:15:40;1.77;;;1.50;;
2850;SDS011;1433;49.976;8.342;2023-05-07T00:18:06;1.70;;;1.60;;
2850;SDS011;1433;49.976;8.342;2023-05-07T00:20:32;2.50;;;1.80;;
2850;SDS011;1433;49.976;8.342;2023-05-07T00:22:58;2.10;;;1.90;;
2850;SDS011;1433;49.976;8.342;2023-05-07T00:25:24;1.87;;;1.70;;
2850;SDS011;1433;49.976;8.342;2023-05-07T00:27:51;1.50;;;1.40;;
2850;SDS011;1433;49.976;8.342;2023-05-07T00:30:19;2.20;;;2.00;;
2850;SDS011;1433;49.976;8.342;2023-05-07T00:32:47;2.10;;;1.50;;
2850;SDS011;1433;49.976;8.342;2023-05-07T00:35:14;1.77;;;1.67;;
2850;SDS011;1433;49.976;8.342;2023-05-07T00:37:40;4.67;;;1.73;;
2850;SDS011;1433;49.976;8.342;2023-05-07T00:40:07;2.63;;;2.10;;
2850;SDS011;1433;49.976;8.342;2023-05-07T00:42:34;1.77;;;1.67;;
2850;SDS011;1433;49.976;8.342;2023-05-07T00:45:00;1.83;;;1.57;;
2850;SDS011;1433;49.976;8.342;2023-05-07T00:47:26;1.70;;;1.60;;
2850;SDS011;1433;49.976;8.342;2023-05-07T00:49:53;2.00;;;1.83;;
2850;SDS011;1433;49.976;8.342;2023-05-07T00:52:19;2.37;;;2.17;;
2850;SDS011;1433;49.976;8.342;2023-05-07T00:54:46;1.60;;;1.30;;
2850;SDS011;1433;49.976;8.342;2023-05-07T00:57:12;1.73;;;1.63;;
2850;SDS011;1433;49.976;8.342;2023-05-07T00:59:39;2.43;;;2.10;;
2850;SDS011;1433;49.976;8.342;2023-05-07T01:02:06;1.60;;;1.40;;
2850;SDS011;1433;49.976;8.342;2023-05-07T01:04:33;2.13;;;1.93;;
2850;SDS011;1433;49.976;8.342;2023-05-07T01:06:59;3.67;;;2.10;;
2850;SDS011;1433;49.976;8.342;2023-05-07T01:09:27;2.00;;;1.77;;
2850;SDS011;1433;49.976;8.342;2023-05-07T01:11:55;2.00;;;1.70;;
2850;SDS011;1433;49.976;8.342;2023-05-07T01:14:23;2.47;;;2.20;;
2850;SDS011;1433;49.976;8.342;2023-05-07T01:16:50;1.87;;;1.57;;
2850;SDS011;1433;49.976;8.342;2023-05-07T01:19:17;2.17;;;1.50;;
2850;SDS011;1433;49.976;8.342;2023-05-07T01:21:46;1.73;;;1.63;;
2850;SDS011;1433;49.976;8.342;2023-05-07T01:24:15;1.63;;;1.53;;
2850;SDS011;1433;49.976;8.342;2023-05-07T01:26:46;2.23;;;2.00;;
2850;SDS011;1433;49.976;8.342;2023-05-07T01:29:11;1.53;;;1.43;;
2850;SDS011;1433;49.976;8.342;2023-05-07T01:31:37;3.73;;;2.13;;
2850;SDS011;1433;49.976;8.342;2023-05-07T01:34:05;1.60;;;1.50;;
2850;SDS011;1433;49.976;8.342;2023-05-07T01:36:34;2.03;;;1.83;;
2850;SDS011;1433;49.976;8.342;2023-05-07T01:39:02;4.70;;;2.10;;
2850;SDS011;1433;49.976;8.342;2023-05-07T01:41:28;1.80;;;1.70;;
2850;SDS011;1433;49.976;8.342;2023-05-07T01:43:54;2.27;;;2.07;;
2850;SDS011;1433;49.976;8.342;2023-05-07T01:46:22;2.97;;;1.70;;
2850;SDS011;1433;49.976;8.342;2023-05-07T01:48:49;2.03;;;1.83;;
2850;SDS011;1433;49.976;8.342;2023-05-07T01:51:16;2.13;;;1.90;;
2850;SDS011;1433;49.976;8.342;2023-05-07T01:53:43;2.30;;;2.10;;
2850;SDS011;1433;49.976;8.342;2023-05-07T01:56:12;1.83;;;1.73;;
2850;SDS011;1433;49.976;8.342;2023-05-07T01:58:39;2.20;;;2.03;;
2850;SDS011;1433;49.976;8.342;2023-05-07T02:01:05;2.10;;;1.90;;
2850;SDS011;1433;49.976;8.342;2023-05-07T02:03:31;2.50;;;1.97;;
2850;SDS011;1433;49.976;8.342;2023-05-07T02:05:59;1.90;;;1.80;;
2850;SDS011;1433;49.976;8.342;2023-05-07T02:08:30;4.20;;;1.57;;
2850;SDS011;1433;49.976;8.342;2023-05-07T02:10:57;1.60;;;1.50;;
2850;SDS011;1433;49.976;8.342;2023-05-07T02:13:25;2.10;;;1.73;;
2850;SDS011;1433;49.976;8.342;2023-05-07T02:15:52;1.50;;;1.40;;
2850;SDS011;1433;49.976;8.342;2023-05-07T02:18:20;3.03;;;1.73;;
2850;SDS011;1433;49.976;8.342;2023-05-07T02:20:47;2.33;;;2.13;;
2850;SDS011;1433;49.976;8.342;2023-05-07T02:23:14;2.13;;;1.97;;
2850;SDS011;1433;49.976;8.342;2023-05-07T02:25:40;1.60;;;1.50;;
2850;SDS011;1433;49.976;8.342;2023-05-07T02:28:06;2.03;;;1.80;;
2850;SDS011;1433;49.976;8.342;2023-05-07T02:30:43;2.43;;;1.97;;
2850;SDS011;1433;49.976;8.342;2023-05-07T02:33:10;7.13;;;1.60;;
2850;SDS011;1433;49.976;8.342;2023-05-07T02:35:38;2.53;;;2.33;;
2850;SDS011;1433;49.976;8.342;2023-05-07T02:38:04;3.33;;;2.00;;
2850;SDS011;1433;49.976;8.342;2023-05-07T02:40:31;2.30;;;2.10;;
2850;SDS011;1433;49.976;8.342;2023-05-07T02:42:59;2.30;;;1.83;;
2850;SDS011;1433;49.976;8.342;2023-05-07T02:45:25;2.00;;;1.80;;
2850;SDS011;1433;49.976;8.342;2023-05-07T02:47:53;1.73;;;1.60;;
2850;SDS011;1433;49.976;8.342;2023-05-07T02:50:19;2.80;;;1.70;;
2850;SDS011;1433;49.976;8.342;2023-05-07T02:52:45;2.00;;;1.80;;
2850;SDS011;1433;49.976;8.342;2023-05-07T02:55:12;1.77;;;1.67;;
2850;SDS011;1433;49.976;8.342;2023-05-07T02:57:38;3.00;;;1.80;;
2850;SDS011;1433;49.976;8.342;2023-05-07T03:00:12;1.77;;;1.60;;
2850;SDS011;1433;49.976;8.342;2023-05-07T03:02:45;2.27;;;2.07;;
2850;SDS011;1433;49.976;8.342;2023-05-07T03:05:11;1.53;;;1.30;;
2850;SDS011;1433;49.976;8.342;2023-05-07T03:07:37;1.80;;;1.70;;
2850;SDS011;1433;49.976;8.342;2023-05-07T03:10:04;2.90;;;1.90;;
2850;SDS011;1433;49.976;8.342;2023-05-07T03:12:31;2.20;;;2.00;;
2850;SDS011;1433;49.976;8.342;2023-05-07T03:14:57;3.17;;;1.63;;
2850;SDS011;1433;49.976;8.342;2023-05-07T03:17:23;2.07;;;1.87;;
2850;SDS011;1433;49.976;8.342;2023-05-07T03:19:50;1.90;;;1.80;;
2850;SDS011;1433;49.976;8.342;2023-05-07T03:22:16;1.73;;;1.63;;
2850;SDS011;1433;49.976;8.342;2023-05-07T03:24:42;5.23;;;2.80;;
2850;SDS011;1433;49.976;8.342;2023-05-07T03:27:08;2.20;;;2.00;;
2850;SDS011;1433;49.976;8.342;2023-05-07T03:29:35;3.17;;;2.30;;
2850;SDS011;1433;49.976;8.342;2023-05-07T03:32:01;2.03;;;1.77;;
2850;SDS011;1433;49.976;8.342;2023-05-07T03:34:28;2.43;;;2.23;;
2850;SDS011;1433;49.976;8.342;2023-05-07T03:36:54;2.20;;;2.10;;
2850;SDS011;1433;49.976;8.342;2023-05-07T03:39:21;2.37;;;1.80;;
2850;SDS011;1433;49.976;8.342;2023-05-07T03:41:47;1.93;;;1.70;;
2850;SDS011;1433;49.976;8.342;2023-05-07T03:44:13;4.33;;;1.77;;
2850;SDS011;1433;49.976;8.342;2023-05-07T03:46:40;2.07;;;1.93;;
2850;SDS011;1433;49.976;8.342;2023-05-07T03:49:07;2.60;;;2.00;;
2850;SDS011;1433;49.976;8.342;2023-05-07T03:51:34;4.93;;;2.27;;
2850;SDS011;1433;49.976;8.342;2023-05-07T03:54:03;3.30;;;2.40;;
2850;SDS011;1433;49.976;8.342;2023-05-07T03:56:30;2.70;;;2.50;;
2850;SDS011;1433;49.976;8.342;2023-05-07T03:58:57;2.43;;;1.93;;
2850;SDS011;1433;49.976;8.342;2023-05-07T04:01:23;2.17;;;1.80;;
2850;SDS011;1433;49.976;8.342;2023-05-07T04:03:50;2.10;;;1.90;;
2850;SDS011;1433;49.976;8.342;2023-05-07T04:06:18;2.10;;;1.90;;
2850;SDS011;1433;49.976;8.342;2023-05-07T04:08:45;3.50;;;2.60;;
2850;SDS011;1433;49.976;8.342;2023-05-07T04:11:12;2.17;;;2.07;;
2850;SDS011;1433;49.976;8.342;2023-05-07T04:13:38;2.37;;;2.17;;
2850;SDS011;1433;49.976;8.342;2023-05-07T04:16:05;2.17;;;1.97;;
2850;SDS011;1433;49.976;8.342;2023-05-07T04:18:33;1.90;;;1.70;;
2850;SDS011;1433;49.976;8.342;2023-05-07T04:21:00;2.63;;;1.90;;
2850;SDS011;1433;49.976;8.342;2023-05-07T04:23:27;2.07;;;1.97;;
2850;SDS011;1433;49.976;8.342;2023-05-07T04:25:53;3.00;;;2.70;;
2850;SDS011;1433;49.976;8.342;2023-05-07T04:28:34;2.97;;;1.90;;
2850;SDS011;1433;49.976;8.342;2023-05-07T04:31:01;2.50;;;2.00;;
2850;SDS011;1433;49.976;8.342;2023-05-07T04:33:29;2.00;;;1.90;;
2850;SDS011;1433;49.976;8.342;2023-05-07T04:35:56;2.83;;;1.80;;
2850;SDS011;1433;49.976;8.342;2023-05-07T04:38:23;2.00;;;1.80;;
2850;SDS011;1433;49.976;8.342;2023-05-07T04:40:49;1.80;;;1.53;;
2850;SDS011;1433;49.976;8.342;2023-05-07T04:43:18;2.20;;;2.10;;
2850;SDS011;1433;49.976;8.342;2023-05-07T04:45:46;2.60;;;2.40;;
2850;SDS011;1433;49.976;8.342;2023-05-07T04:48:12;5.50;;;2.20;;
2850;SDS011;1433;49.976;8.342;2023-05-07T04:50:40;4.80;;;1.80;;
2850;SDS011;1433;49.976;8.342;2023-05-07T04:53:07;2.30;;;2.10;;
2850;SDS011;1433;49.976;8.342;2023-05-07T04:55:33;2.43;;;1.80;;
2850;SDS011;1433;49.976;8.342;2023-05-07T04:57:59;2.43;;;2.23;;
2850;SDS011;1433;49.976;8.342;2023-05-07T05:00:28;2.13;;;2.03;;
2850;SDS011;1433;49.976;8.342;2023-05-07T05:02:54;2.07;;;1.87;;
2850;SDS011;1433;49.976;8.342;2023-05-07T05:05:21;2.37;;;2.20;;
2850;SDS011;1433;49.976;8.342;2023-05-07T05:07:49;2.53;;;2.33;;
2850;SDS011;1433;49.976;8.342;2023-05-07T05:10:17;2.13;;;1.93;;
2850;SDS011;1433;49.976;8.342;2023-05-07T05:12:44;3.40;;;2.37;;
2850;SDS011;1433;49.976;8.342;2023-05-07T05:15:11;2.37;;;1.90;;
2850;SDS011;1433;49.976;8.342;2023-05-07T05:17:39;2.03;;;1.93;;
2850;SDS011;1433;49.976;8.342;2023-05-07T05:20:06;3.50;;;2.33;;
2850;SDS011;1433;49.976;8.342;2023-05-07T05:22:33;2.90;;;1.87;;
2850;SDS011;1433;49.976;8.342;2023-05-07T05:25:01;2.60;;;2.40;;
2850;SDS011;1433;49.976;8.342;2023-05-07T05:27:27;2.40;;;1.90;;
2850;SDS011;1433;49.976;8.342;2023-05-07T05:29:53;2.27;;;2.07;;
2850;SDS011;1433;49.976;8.342;2023-05-07T05:32:19;2.37;;;1.80;;
2850;SDS011;1433;49.976;8.342;2023-05-07T05:34:46;2.30;;;2.10;;
2850;SDS011;1433;49.976;8.342;2023-05-07T05:37:12;2.00;;;1.90;;
2850;SDS011;1433;49.976;8.342;2023-05-07T05:39:38;2.67;;;2.47;;
2850;SDS011;1433;49.976;8.342;2023-05-07T05:42:05;2.43;;;2.23;;
2850;SDS011;1433;49.976;8.342;2023-05-07T05:44:33;2.50;;;2.27;;
2850;SDS011;1433;49.976;8.342;2023-05-07T05:47:00;2.10;;;1.87;;
2850;SDS011;1433;49.976;8.342;2023-05-07T05:49:26;3.03;;;1.97;;
2850;SDS011;1433;49.976;8.342;2023-05-07T05:51:53;2.00;;;1.80;;
2850;SDS011;1433;49.976;8.342;2023-05-07T05:54:20;2.43;;;2.23;;
2850;SDS011;1433;49.976;8.342;2023-05-07T05:56:47;3.17;;;2.20;;
2850;SDS011;1433;49.976;8.342;2023-05-07T05:59:15;5.63;;;2.10;;
2850;SDS011;1433;49.976;8.342;2023-05-07T06:01:42;2.47;;;2.27;;
2850;SDS011;1433;49.976;8.342;2023-05-07T06:04:08;2.30;;;2.10;;
2850;SDS011;1433;49.976;8.342;2023-05-07T06:06:34;2.60;;;2.40;;
2850;SDS011;1433;49.976;8.342;2023-05-07T06:09:01;3.07;;;2.70;;
2850;SDS011;1433;49.976;8.342;2023-05-07T06:11:29;3.63;;;2.20;;
2850;SDS011;1433;49.976;8.342;2023-05-07T06:13:59;3.30;;;2.47;;
2850;SDS011;1433;49.976;8.342;2023-05-07T06:16:26;2.90;;;2.67;;
2850;SDS011;1433;49.976;8.342;2023-05-07T06:18:52;2.90;;;2.63;;
2850;SDS011;1433;49.976;8.342;2023-05-07T06:21:20;2.93;;;2.60;;
2850;SDS011;1433;49.976;8.342;2023-05-07T06:23:46;2.60;;;2.40;;
2850;SDS011;1433;49.976;8.342;2023-05-07T06:26:12;2.30;;;2.10;;
2850;SDS011;1433;49.976;8.342;2023-05-07T06:28:41;2.20;;;2.00;;
2850;SDS011;1433;49.976;8.342;2023-05-07T06:31:14;3.40;;;2.60;;
2850;SDS011;1433;49.976;8.342;2023-05-07T06:33:44;2.50;;;2.30;;
2850;SDS011;1433;49.976;8.342;2023-05-07T06:36:11;2.27;;;2.03;;
2850;SDS011;1433;49.976;8.342;2023-05-07T06:38:38;2.70;;;2.37;;
2850;SDS011;1433;49.976;8.342;2023-05-07T06:41:05;2.50;;;2.30;;
2850;SDS011;1433;49.976;8.342;2023-05-07T06:43:32;2.90;;;2.40;;
2850;SDS011;1433;49.976;8.342;2023-05-07T06:46:03;3.07;;;2.60;;
2850;SDS011;1433;49.976;8.342;2023-05-07T06:48:29;2.77;;;2.53;;
2850;SDS011;1433;49.976;8.342;2023-05-07T06:50:57;2.70;;;2.03;;
2850;SDS011;1433;49.976;8.342;2023-05-07T06:53:24;3.90;;;2.40;;
2850;SDS011;1433;49.976;8.342;2023-05-07T06:55:53;2.10;;;1.90;;
2850;SDS011;1433;49.976;8.342;2023-05-07T06:58:20;4.93;;;2.57;;
2850;SDS011;1433;49.976;8.342;2023-05-07T07:00:47;2.30;;;2.10;;
2850;SDS011;1433;49.976;8.342;2023-05-07T07:03:13;2.13;;;1.90;;
2850;SDS011;1433;49.976;8.342;2023-05-07T07:05:40;2.00;;;1.90;;
2850;SDS011;1433;49.976;8.342;2023-05-07T07:08:07;2.63;;;2.30;;
2850;SDS011;1433;49.976;8.342;2023-05-07T07:10:33;2.40;;;2.20;;
2850;SDS011;1433;49.976;8.342;2023-05-07T07:13:00;1.97;;;1.87;;
2850;SDS011;1433;49.976;8.342;2023-05-07T07:15:27;2.30;;;2.10;;
2850;SDS011;1433;49.976;8.342;2023-05-07T07:17:53;3.03;;;2.17;;
2850;SDS011;1433;49.976;8.342;2023-05-07T07:20:22;2.33;;;2.13;;
2850;SDS011;1433;49.976;8.342;2023-05-07T07:22:48;3.73;;;2.90;;
2850;SDS011;1433;49.976;8.342;2023-05-07T07:25:15;2.10;;;1.90;;
2850;SDS011;1433;49.976;8.342;2023-05-07T07:27:42;2.27;;;1.87;;
2850;SDS011;1433;49.976;8.342;2023-05-07T07:30:08;2.67;;;2.47;;
2850;SDS011;1433;49.976;8.342;2023-05-07T07:32:37;1.83;;;1.63;;
2850;SDS011;1433;49.976;8.342;2023-05-07T07:35:03;3.10;;;2.03;;
2850;SDS011;1433;49.976;8.342;2023-05-07T07:37:31;2.30;;;2.10;;
2850;SDS011;1433;49.976;8.342;2023-05-07T07:39:58;3.00;;;2.30;;
2850;SDS011;1433;49.976;8.342;2023-05-07T07:42:26;2.27;;;2.07;;
2850;SDS011;1433;49.976;8.342;2023-05-07T07:44:53;2.50;;;2.30;;
2850;SDS011;1433;49.976;8.342;2023-05-07T07:47:20;2.33;;;2.07;;
2850;SDS011;1433;49.976;8.342;2023-05-07T07:49:47;5.20;;;3.03;;
2850;SDS011;1433;49.976;8.342;2023-05-07T07:52:13;2.30;;;2.10;;
2850;SDS011;1433;49.976;8.342;2023-05-07T07:54:39;3.77;;;2.40;;
2850;SDS011;1433;49.976;8.342;2023-05-07T07:57:06;3.73;;;2.80;;
2850;SDS011;1433;49.976;8.342;2023-05-07T07:59:32;3.63;;;2.30;;
2850;SDS011;1433;49.976;8.342;2023-05-07T08:01:59;2.37;;;2.23;;
2850;SDS011;1433;49.976;8.342;2023-05-07T08:04:26;2.77;;;2.57;;
2850;SDS011;1433;49.976;8.342;2023-05-07T08:06:53;3.13;;;2.80;;
2850;SDS011;1433;49.976;8.342;2023-05-07T08:09:20;2.57;;;2.37;;
2850;SDS011;1433;49.976;8.342;2023-05-07T08:11:50;4.20;;;3.90;;
2850;SDS011;1433;49.976;8.342;2023-05-07T08:14:23;3.90;;;3.63;;
2850;SDS011;1433;49.976;8.342;2023-05-07T08:16:58;3.27;;;2.97;;
2850;SDS011;1433;49.976;8.342;2023-05-07T08:19:29;4.10;;;2.90;;
2850;SDS011;1433;49.976;8.342;2023-05-07T08:22:03;2.53;;;2.10;;
2850;SDS011;1433;49.976;8.342;2023-05-07T08:24:31;2.40;;;2.20;;
2850;SDS011;1433;49.976;8.342;2023-05-07T08:26:57;6.60;;;2.80;;
2850;SDS011;1433;49.976;8.342;2023-05-07T08:29:24;2.70;;;2.50;;
2850;SDS011;1433;49.976;8.342;2023-05-07T08:31:50;2.27;;;2.07;;
2850;SDS011;1433;49.976;8.342;2023-05-07T08:34:16;3.30;;;2.00;;
2850;SDS011;1433;49.976;8.342;2023-05-07T08:36:44;2.30;;;2.10;;
2850;SDS011;1433;49.976;8.342;2023-05-07T08:39:18;5.80;;;2.20;;
2850;SDS011;1433;49.976;8.342;2023-05-07T08:41:46;5.20;;;2.97;;
2850;SDS011;1433;49.976;8.342;2023-05-07T08:44:14;2.60;;;2.40;;
2850;SDS011;1433;49.976;8.342;2023-05-07T08:46:45;3.00;;;2.70;;
2850;SDS011;1433;49.976;8.342;2023-05-07T08:49:14;2.53;;;2.33;;
2850;SDS011;1433;49.976;8.342;2023-05-07T08:51:42;3.30;;;2.30;;
2850;SDS011;1433;49.976;8.342;2023-05-07T08:54:08;2.67;;;2.47;;
2850;SDS011;1433;49.976;8.342;2023-05-07T08:56:36;2.13;;;1.93;;
2850;SDS011;1433;49.976;8.342;2023-05-07T08:59:03;2.60;;;1.97;;
2850;SDS011;1433;49.976;8.342;2023-05-07T09:01:31;2.53;;;2.13;;
2850;SDS011;1433;49.976;8.342;2023-05-07T09:03:57;2.33;;;2.13;;
2850;SDS011;1433;49.976;8.342;2023-05-07T09:06:24;3.77;;;3.50;;
2850;SDS011;1433;49.976;8.342;2023-05-07T09:08:52;3.00;;;2.60;;
2850;SDS011;1433;49.976;8.342;2023-05-07T09:11:20;2.77;;;2.57;;
2850;SDS011;1433;49.976;8.342;2023-05-07T09:13:53;2.67;;;2.47;;
2850;SDS011;1433;49.976;8.342;2023-05-07T09:16:22;3.97;;;3.27;;
2850;SDS011;1433;49.976;8.342;2023-05-07T09:18:53;2.27;;;2.07;;
2850;SDS011;1433;49.976;8.342;2023-05-07T09:21:21;2.83;;;2.17;;
2850;SDS011;1433;49.976;8.342;2023-05-07T09:23:52;2.47;;;2.27;;
2850;SDS011;1433;49.976;8.342;2023-05-07T09:26:23;2.50;;;2.30;;
2850;SDS011;1433;49.976;8.342;2023-05-07T09:28:50;2.70;;;2.50;;
2850;SDS011;1433;49.976;8.342;2023-05-07T09:31:18;4.23;;;2.30;;
2850;SDS011;1433;49.976;8.342;2023-05-07T09:33:45;2.90;;;2.70;;
2850;SDS011;1433;49.976;8.342;2023-05-07T09:36:12;3.00;;;2.80;;
2850;SDS011;1433;49.976;8.342;2023-05-07T09:38:39;2.73;;;2.17;;
2850;SDS011;1433;49.976;8.342;2023-05-07T09:41:07;2.53;;;2.33;;
2850;SDS011;1433;49.976;8.342;2023-05-07T09:43:37;2.67;;;2.47;;
2850;SDS011;1433;49.976;8.342;2023-05-07T09:46:12;2.33;;;2.13;;
2850;SDS011;1433;49.976;8.342;2023-05-07T09:48:42;3.27;;;2.80;;
2850;SDS011;1433;49.976;8.342;2023-05-07T09:53:44;2.13;;;1.93;;
2850;SDS011;1433;49.976;8.342;2023-05-07T09:56:13;2.53;;;2.33;;
2850;SDS011;1433;49.976;8.342;2023-05-07T09:58:42;3.10;;;2.37;;
2850;SDS011;1433;49.976;8.342;2023-05-07T10:01:11;4.03;;;2.07;;
2850;SDS011;1433;49.976;8.342;2023-05-07T10:03:39;2.43;;;1.97;;
2850;SDS011;1433;49.976;8.342;2023-05-07T10:06:09;3.83;;;2.30;;
2850;SDS011;1433;49.976;8.342;2023-05-07T10:08:36;2.07;;;1.93;;
2850;SDS011;1433;49.976;8.342;2023-05-07T10:11:04;3.03;;;2.60;;
2850;SDS011;1433;49.976;8.342;2023-05-07T10:13:35;2.20;;;2.00;;
2850;SDS011;1433;49.976;8.342;2023-05-07T10:16:04;2.10;;;1.90;;
2850;SDS011;1433;49.976;8.342;2023-05-07T10:18:33;1.73;;;1.63;;
2850;SDS011;1433;49.976;8.342;2023-05-07T10:21:07;3.10;;;2.57;;
2850;SDS011;1433;49.976;8.342;2023-05-07T10:23:49;2.43;;;2.23;;
2850;SDS011;1433;49.976;8.342;2023-05-07T10:26:17;2.87;;;2.17;;
2850;SDS011;1433;49.976;8.342;2023-05-07T10:28:47;3.00;;;2.47;;
2850;SDS011;1433;49.976;8.342;2023-05-07T10:34:02;2.57;;;2.07;;
2850;SDS011;1433;49.976;8.342;2023-05-07T10:36:31;2.17;;;2.00;;
2850;SDS011;1433;49.976;8.342;2023-05-07T10:38:59;2.40;;;2.03;;
2850;SDS011;1433;49.976;8.342;2023-05-07T10:41:26;2.30;;;2.20;;
2850;SDS011;1433;49.976;8.342;2023-05-07T10:43:52;2.03;;;1.93;;
2850;SDS011;1433;49.976;8.342;2023-05-07T10:46:21;3.37;;;2.57;;
2850;SDS011;1433;49.976;8.342;2023-05-07T10:51:40;2.70;;;2.50;;
2850;SDS011;1433;49.976;8.342;2023-05-07T10:56:45;1.97;;;1.80;;
2850;SDS011;1433;49.976;8.342;2023-05-07T11:02:02;2.20;;;2.00;;
2850;SDS011;1433;49.976;8.342;2023-05-07T11:04:35;2.63;;;2.23;;
2850;SDS011;1433;49.976;8.342;2023-05-07T11:07:23;2.77;;;2.57;;
2850;SDS011;1433;49.976;8.342;2023-05-07T11:09:57;2.27;;;2.07;;
2850;SDS011;1433;49.976;8.342;2023-05-07T11:15:09;2.37;;;2.20;;
2850;SDS011;1433;49.976;8.342;2023-05-07T11:26:10;2.30;;;2.10;;
2850;SDS011;1433;49.976;8.342;2023-05-07T11:28:42;2.00;;;1.90;;
2850;SDS011;1433;49.976;8.342;2023-05-07T11:31:07;2.63;;;2.10;;
2850;SDS011;1433;49.976;8.342;2023-05-07T11:33:35;2.40;;;2.20;;
2850;SDS011;1433;49.976;8.342;2023-05-07T11:36:03;3.00;;;1.67;;
2850;SDS011;1433;49.976;8.342;2023-05-07T11:38:35;1.80;;;1.70;;
2850;SDS011;1433;49.976;8.342;2023-05-07T11:41:03;4.00;;;2.37;;
2850;SDS011;1433;49.976;8.342;2023-05-07T11:43:31;1.97;;;1.80;;
2850;SDS011;1433;49.976;8.342;2023-05-07T11:46:11;1.90;;;1.80;;
2850;SDS011;1433;49.976;8.342;2023-05-07T11:48:38;1.80;;;1.70;;
2850;SDS011;1433;49.976;8.342;2023-05-07T11:51:05;2.17;;;1.97;;
2850;SDS011;1433;49.976;8.342;2023-05-07T11:53:35;2.93;;;2.43;;
2850;SDS011;1433;49.976;8.342;2023-05-07T11:56:10;3.43;;;2.10;;
2850;SDS011;1433;49.976;8.342;2023-05-07T11:58:39;1.80;;;1.70;;
2850;SDS011;1433;49.976;8.342;2023-05-07T12:01:09;3.30;;;2.23;;
2850;SDS011;1433;49.976;8.342;2023-05-07T12:03:37;2.87;;;1.70;;
2850;SDS011;1433;49.976;8.342;2023-05-07T12:06:09;1.73;;;1.63;;
2850;SDS011;1433;49.976;8.342;2023-05-07T12:08:33;2.23;;;1.70;;
2850;SDS011;1433;49.976;8.342;2023-05-07T12:11:06;1.83;;;1.73;;
2850;SDS011;1433;49.976;8.342;2023-05-07T12:13:34;2.70;;;2.10;;
2850;SDS011;1433;49.976;8.342;2023-05-07T12:16:00;2.10;;;2.00;;
2850;SDS011;1433;49.976;8.342;2023-05-07T12:18:28;1.80;;;1.70;;
2850;SDS011;1433;49.976;8.342;2023-05-07T12:20:55;2.03;;;1.90;;
2850;SDS011;1433;49.976;8.342;2023-05-07T12:23:22;1.63;;;1.53;;
2850;SDS011;1433;49.976;8.342;2023-05-07T12:25:48;1.77;;;1.67;;
2850;SDS011;1433;49.976;8.342;2023-05-07T12:28:19;1.87;;;1.47;;
2850;SDS011;1433;49.976;8.342;2023-05-07T12:30:44;2.20;;;1.40;;
2850;SDS011;1433;49.976;8.342;2023-05-07T12:33:11;2.13;;;1.60;;
2850;SDS011;1433;49.976;8.342;2023-05-07T12:35:44;1.60;;;1.50;;
2850;SDS011;1433;49.976;8.342;2023-05-07T12:38:11;1.40;;;1.30;;
2850;SDS011;1433;49.976;8.342;2023-05-07T12:43:21;1.60;;;1.50;;
2850;SDS011;1433;49.976;8.342;2023-05-07T12:45:50;1.40;;;1.23;;
2850;SDS011;1433;49.976;8.342;2023-05-07T12:48:17;1.33;;;1.23;;
2850;SDS011;1433;49.976;8.342;2023-05-07T12:50:49;1.70;;;1.33;;
2850;SDS011;1433;49.976;8.342;2023-05-07T12:53:16;1.50;;;1.37;;
2850;SDS011;1433;49.976;8.342;2023-05-07T12:55:46;1.67;;;1.57;;
2850;SDS011;1433;49.976;8.342;2023-05-07T12:58:19;2.03;;;1.90;;
2850;SDS011;1433;49.976;8.342;2023-05-07T13:00:48;1.60;;;1.50;;
2850;SDS011;1433;49.976;8.342;2023-05-07T13:03:22;1.70;;;1.50;;
2850;SDS011;1433;49.976;8.342;2023-05-07T13:05:50;1.80;;;1.70;;
2850;SDS011;1433;49.976;8.342;2023-05-07T13:08:30;2.07;;;1.60;;
2850;SDS011;1433;49.976;8.342;2023-05-07T13:11:03;2.10;;;2.00;;
2850;SDS011;1433;49.976;8.342;2023-05-07T13:13:30;1.57;;;1.47;;
2850;SDS011;1433;49.976;8.342;2023-05-07T13:15:57;1.70;;;1.30;;
2850;SDS011;1433;49.976;8.342;2023-05-07T13:18:26;1.57;;;1.33;;
2850;SDS011;1433;49.976;8.342;2023-05-07T13:20:55;1.67;;;1.57;;
2850;SDS011;1433;49.976;8.342;2023-05-07T13:23:21;1.73;;;1.63;;
2850;SDS011;1433;49.976;8.342;2023-05-07T13:25:47;1.50;;;1.30;;
2850;SDS011;1433;49.976;8.342;2023-05-07T13:28:16;2.07;;;1.63;;
2850;SDS011;1433;49.976;8.342;2023-05-07T13:30:42;1.40;;;1.30;;
2850;SDS011;1433;49.976;8.342;2023-05-07T13:33:08;1.63;;;1.37;;
2850;SDS011;1433;49.976;8.342;2023-05-07T13:35:35;1.40;;;1.30;;
2850;SDS011;1433;49.976;8.342;2023-05-07T13:38:01;1.43;;;1.33;;
2850;SDS011;1433;49.976;8.342;2023-05-07T13:40:27;1.87;;;1.40;;
2850;SDS011;1433;49.976;8.342;2023-05-07T13:42:53;1.60;;;1.30;;
2850;SDS011;1433;49.976;8.342;2023-05-07T13:45:22;1.40;;;1.20;;
2850;SDS011;1433;49.976;8.342;2023-05-07T13:47:50;1.20;;;1.10;;
2850;SDS011;1433;49.976;8.342;2023-05-07T13:50:16;1.70;;;1.60;;
2850;SDS011;1433;49.976;8.342;2023-05-07T13:52:42;1.30;;;1.20;;
2850;SDS011;1433;49.976;8.342;2023-05-07T13:55:11;1.40;;;1.30;;
2850;SDS011;1433;49.976;8.342;2023-05-07T13:57:38;2.03;;;1.20;;
2850;SDS011;1433;49.976;8.342;2023-05-07T14:00:04;1.43;;;1.33;;
2850;SDS011;1433;49.976;8.342;2023-05-07T14:02:33;1.63;;;1.30;;
2850;SDS011;1433;49.976;8.342;2023-05-07T14:04:59;1.57;;;1.47;;
2850;SDS011;1433;49.976;8.342;2023-05-07T14:07:25;1.40;;;1.30;;
2850;SDS011;1433;49.976;8.342;2023-05-07T14:09:52;1.10;;;1.00;;
2850;SDS011;1433;49.976;8.342;2023-05-07T14:12:18;1.90;;;1.47;;
2850;SDS011;1433;49.976;8.342;2023-05-07T14:14:44;1.63;;;1.20;;
2850;SDS011;1433;49.976;8.342;2023-05-07T14:17:11;2.20;;;1.27;;
2850;SDS011;1433;49.976;8.342;2023-05-07T14:19:37;1.40;;;1.20;;
2850;SDS011;1433;49.976;8.342;2023-05-07T14:22:04;1.20;;;1.10;;
2850;SDS011;1433;49.976;8.342;2023-05-07T14:24:30;1.30;;;1.20;;
2850;SDS011;1433;49.976;8.342;2023-05-07T14:26:56;1.60;;;1.30;;
2850;SDS011;1433;49.976;8.342;2023-05-07T14:29:22;1.80;;;1.70;;
2850;SDS011;1433;49.976;8.342;2023-05-07T14:31:48;1.80;;;1.43;;
2850;SDS011;1433;49.976;8.342;2023-05-07T14:34:16;2.03;;;1.93;;
2850;SDS011;1433;49.976;8.342;2023-05-07T14:36:42;2.60;;;1.40;;
2850;SDS011;1433;49.976;8.342;2023-05-07T14:39:09;2.00;;;1.40;;
2850;SDS011;1433;49.976;8.342;2023-05-07T14:41:36;1.70;;;1.40;;
2850;SDS011;1433;49.976;8.342;2023-05-07T14:44:02;1.40;;;1.23;;
2850;SDS011;1433;49.976;8.342;2023-05-07T14:46:29;1.47;;;1.37;;
2850;SDS011;1433;49.976;8.342;2023-05-07T14:48:56;1.87;;;1.63;;
2850;SDS011;1433;49.976;8.342;2023-05-07T14:51:22;1.67;;;1.30;;
2850;SDS011;1433;49.976;8.342;2023-05-07T14:53:50;3.20;;;1.30;;
2850;SDS011;1433;49.976;8.342;2023-05-07T14:56:16;2.53;;;1.90;;
2850;SDS011;1433;49.976;8.342;2023-05-07T14:58:43;2.70;;;1.80;;
2850;SDS011;1433;49.976;8.342;2023-05-07T15:01:09;1.73;;;1.63;;
2850;SDS011;1433;49.976;8.342;2023-05-07T15:03:35;2.63;;;2.20;;
2850;SDS011;1433;49.976;8.342;2023-05-07T15:06:05;2.30;;;2.10;;
2850;SDS011;1433;49.976;8.342;2023-05-07T15:08:36;3.37;;;2.40;;
2850;SDS011;1433;49.976;8.342;2023-05-07T15:11:02;3.07;;;2.60;;
2850;SDS011;1433;49.976;8.342;2023-05-07T15:13:30;2.77;;;2.20;;
2850;SDS011;1433;49.976;8.342;2023-05-07T15:16:07;4.03;;;2.73;;
2850;SDS011;1433;49.976;8.342;2023-05-07T15:18:33;2.90;;;2.33;;
2850;SDS011;1433;49.976;8.342;2023-05-07T15:20:59;2.80;;;2.13;;
2850;SDS011;1433;49.976;8.342;2023-05-07T15:23:25;2.13;;;2.03;;
2850;SDS011;1433;49.976;8.342;2023-05-07T15:25:52;2.40;;;2.30;;
2850;SDS011;1433;49.976;8.342;2023-05-07T15:28:19;2.13;;;1.90;;
2850;SDS011;1433;49.976;8.342;2023-05-07T15:30:45;2.23;;;2.13;;
2850;SDS011;1433;49.976;8.342;2023-05-07T15:33:11;2.33;;;2.23;;
2850;SDS011;1433;49.976;8.342;2023-05-07T15:35:37;2.83;;;2.53;;
2850;SDS011;1433;49.976;8.342;2023-05-07T15:38:04;2.77;;;2.57;;
2850;SDS011;1433;49.976;8.342;2023-05-07T15:40:31;2.67;;;2.47;;
2850;SDS011;1433;49.976;8.342;2023-05-07T15:42:58;2.57;;;2.37;;
2850;SDS011;1433;49.976;8.342;2023-05-07T15:45:24;2.00;;;1.90;;